DAL452 KLAS-KLAX
Flight info
| Callsign | DAL452 |
|---|---|
| Flight time | 0h 39m |
| Altitude | 28000 |
| Route | RADYR2 BLAQQ SHTNR ANJLL4 |
| Aircraft | A321/M-SDE3FGHIRWY/LB1 |
Departure
| Time | 2026-05-06 16:07 |
|---|---|
| Airport | Harry Reid International Airport (KLAS) |
Arrival
| Time | 2026-05-06 16:47 |
|---|---|
| Airport | Los Angeles International Airport (KLAX) |
| Time | Latitude | Longitude | Altitude | Speed | Heading |
|---|---|---|---|---|---|
| 2026-05-06 15:18 | 36.08080 | -115.13684 | 65 ft | 0 kts | 44° |
| 2026-05-06 15:56 | 36.08064 | -115.13704 | 2074 ft | 4 kts | 38° |
| 2026-05-06 15:56 | 36.08044 | -115.13725 | 2075 ft | 4 kts | 45° |
| 2026-05-06 15:56 | 36.08027 | -115.13750 | 2073 ft | 4 kts | 64° |
| 2026-05-06 15:57 | 36.08021 | -115.13779 | 2075 ft | 3 kts | 103° |
| 2026-05-06 15:57 | 36.08023 | -115.13788 | 2076 ft | 0 kts | 105° |
| 2026-05-06 16:01 | 36.08018 | -115.13769 | 2075 ft | 9 kts | 108° |
| 2026-05-06 16:02 | 36.07979 | -115.13699 | 2073 ft | 21 kts | 132° |
| 2026-05-06 16:02 | 36.07871 | -115.13563 | 2073 ft | 22 kts | 136° |
| 2026-05-06 16:02 | 36.07828 | -115.13399 | 2069 ft | 21 kts | 89° |
| 2026-05-06 16:02 | 36.07823 | -115.13205 | 2062 ft | 24 kts | 92° |
| 2026-05-06 16:03 | 36.07826 | -115.12994 | 2057 ft | 25 kts | 88° |
| 2026-05-06 16:03 | 36.07823 | -115.12769 | 2050 ft | 27 kts | 89° |
| 2026-05-06 16:03 | 36.07830 | -115.12532 | 2046 ft | 28 kts | 91° |
| 2026-05-06 16:03 | 36.07826 | -115.12293 | 2044 ft | 22 kts | 95° |
| 2026-05-06 16:04 | 36.07757 | -115.12160 | 2044 ft | 7 kts | 134° |
| 2026-05-06 16:04 | 36.07753 | -115.12154 | 2047 ft | 0 kts | 135° |
| 2026-05-06 16:06 | 36.07737 | -115.12140 | 2045 ft | 9 kts | 149° |
| 2026-05-06 16:06 | 36.07650 | -115.12149 | 2050 ft | 14 kts | 233° |
| 2026-05-06 16:06 | 36.07640 | -115.12208 | 2051 ft | 0 kts | 266° |
| 2026-05-06 16:06 | 36.07640 | -115.12217 | 2054 ft | 9 kts | 267° |
| 2026-05-06 16:07 | 36.07639 | -115.12692 | 2058 ft | 101 kts | 270° |
| 2026-05-06 16:07 | 36.07637 | -115.13875 | 2086 ft | 172 kts | 270° |
| 2026-05-06 16:07 | 36.07630 | -115.15467 | 2703 ft | 188 kts | 269° |
| 2026-05-06 16:07 | 36.07628 | -115.17090 | 3701 ft | 190 kts | 268° |
| 2026-05-06 16:08 | 36.07626 | -115.18763 | 4385 ft | 202 kts | 267° |
| 2026-05-06 16:08 | 36.07615 | -115.20571 | 4623 ft | 219 kts | 265° |
| 2026-05-06 16:08 | 36.07375 | -115.22477 | 4734 ft | 233 kts | 258° |
| 2026-05-06 16:08 | 36.06870 | -115.24500 | 5340 ft | 251 kts | 241° |
| 2026-05-06 16:09 | 36.05760 | -115.26166 | 6248 ft | 254 kts | 220° |
| 2026-05-06 16:09 | 36.04154 | -115.27174 | 6921 ft | 270 kts | 200° |
| 2026-05-06 16:09 | 36.02373 | -115.27957 | 7654 ft | 275 kts | 200° |
| 2026-05-06 16:09 | 36.00566 | -115.28772 | 7937 ft | 277 kts | 200° |
| 2026-05-06 16:10 | 35.98734 | -115.29505 | 8007 ft | 276 kts | 191° |
| 2026-05-06 16:10 | 35.96832 | -115.29975 | 8618 ft | 279 kts | 190° |
| 2026-05-06 16:10 | 35.94919 | -115.30450 | 9421 ft | 282 kts | 190° |
| 2026-05-06 16:10 | 35.92988 | -115.30927 | 10151 ft | 286 kts | 189° |
| 2026-05-06 16:11 | 35.90964 | -115.31422 | 10434 ft | 307 kts | 189° |
| 2026-05-06 16:11 | 35.88779 | -115.31954 | 10613 ft | 330 kts | 189° |
| 2026-05-06 16:11 | 35.86480 | -115.32515 | 11058 ft | 342 kts | 189° |
| 2026-05-06 16:11 | 35.84119 | -115.33095 | 11637 ft | 349 kts | 189° |
| 2026-05-06 16:12 | 35.81717 | -115.33685 | 12267 ft | 355 kts | 189° |
| 2026-05-06 16:12 | 35.79316 | -115.34273 | 12875 ft | 361 kts | 189° |
| 2026-05-06 16:12 | 35.76817 | -115.34887 | 13499 ft | 367 kts | 190° |
| 2026-05-06 16:12 | 35.74348 | -115.35493 | 14115 ft | 372 kts | 191° |
| 2026-05-06 16:13 | 35.71793 | -115.36120 | 14758 ft | 376 kts | 191° |
| 2026-05-06 16:13 | 35.69214 | -115.36752 | 15415 ft | 379 kts | 191° |
| 2026-05-06 16:13 | 35.66632 | -115.37384 | 16095 ft | 381 kts | 190° |
| 2026-05-06 16:13 | 35.64007 | -115.38026 | 16747 ft | 384 kts | 190° |
| 2026-05-06 16:14 | 35.61364 | -115.38589 | 17350 ft | 387 kts | 184° |
| 2026-05-06 16:14 | 35.58668 | -115.38640 | 17926 ft | 389 kts | 174° |
| 2026-05-06 16:14 | 35.55953 | -115.38431 | 18505 ft | 393 kts | 174° |
| 2026-05-06 16:14 | 35.53221 | -115.38228 | 19051 ft | 396 kts | 174° |
| 2026-05-06 16:15 | 35.50449 | -115.38027 | 19588 ft | 400 kts | 174° |
| 2026-05-06 16:15 | 35.47661 | -115.37847 | 20099 ft | 404 kts | 177° |
| 2026-05-06 16:15 | 35.44841 | -115.38122 | 20602 ft | 411 kts | 188° |
| 2026-05-06 16:15 | 35.42060 | -115.39047 | 21090 ft | 417 kts | 199° |
| 2026-05-06 16:16 | 35.39435 | -115.40570 | 21550 ft | 422 kts | 207° |
| 2026-05-06 16:16 | 35.36819 | -115.42266 | 22015 ft | 426 kts | 206° |
| 2026-05-06 16:16 | 35.34187 | -115.43960 | 22464 ft | 430 kts | 206° |
| 2026-05-06 16:16 | 35.31564 | -115.45637 | 22900 ft | 433 kts | 206° |
| 2026-05-06 16:17 | 35.28833 | -115.47376 | 23317 ft | 437 kts | 206° |
| 2026-05-06 16:17 | 35.26161 | -115.49076 | 23707 ft | 441 kts | 206° |
| 2026-05-06 16:17 | 35.23432 | -115.50808 | 24095 ft | 444 kts | 206° |
| 2026-05-06 16:17 | 35.20675 | -115.52555 | 24464 ft | 448 kts | 206° |
| 2026-05-06 16:18 | 35.17903 | -115.54317 | 24839 ft | 451 kts | 206° |
| 2026-05-06 16:18 | 35.15109 | -115.56102 | 25200 ft | 455 kts | 207° |
| 2026-05-06 16:18 | 35.12442 | -115.58216 | 25548 ft | 461 kts | 217° |
| 2026-05-06 16:18 | 35.10047 | -115.60852 | 25879 ft | 466 kts | 226° |
| 2026-05-06 16:19 | 35.07814 | -115.63735 | 26224 ft | 469 kts | 226° |
| 2026-05-06 16:19 | 35.05555 | -115.66638 | 26548 ft | 474 kts | 226° |
| 2026-05-06 16:19 | 35.03270 | -115.69564 | 26867 ft | 478 kts | 226° |
| 2026-05-06 16:19 | 35.00965 | -115.72509 | 27170 ft | 482 kts | 226° |
| 2026-05-06 16:20 | 34.98639 | -115.75471 | 27475 ft | 486 kts | 225° |
| 2026-05-06 16:20 | 34.96291 | -115.78453 | 27789 ft | 489 kts | 225° |
| 2026-05-06 16:20 | 34.93930 | -115.81450 | 28043 ft | 493 kts | 225° |
| 2026-05-06 16:20 | 34.91561 | -115.84460 | 28106 ft | 486 kts | 225° |
| 2026-05-06 16:21 | 34.86940 | -115.90336 | 28112 ft | 478 kts | 225° |
| 2026-05-06 16:21 | 34.82348 | -115.96157 | 28112 ft | 478 kts | 225° |
| 2026-05-06 16:22 | 34.77732 | -116.02001 | 28113 ft | 480 kts | 225° |
| 2026-05-06 16:22 | 34.75388 | -116.04970 | 28114 ft | 492 kts | 225° |
| 2026-05-06 16:22 | 34.72996 | -116.08007 | 28114 ft | 503 kts | 225° |
| 2026-05-06 16:23 | 34.70550 | -116.11119 | 28112 ft | 514 kts | 226° |
| 2026-05-06 16:23 | 34.68094 | -116.14250 | 28113 ft | 524 kts | 226° |
| 2026-05-06 16:23 | 34.63006 | -116.20744 | 28155 ft | 537 kts | 226° |
| 2026-05-06 16:24 | 34.57813 | -116.27341 | 28165 ft | 540 kts | 225° |
| 2026-05-06 16:24 | 34.52602 | -116.33940 | 28167 ft | 542 kts | 225° |
| 2026-05-06 16:25 | 34.47451 | -116.40439 | 28167 ft | 517 kts | 225° |
| 2026-05-06 16:25 | 34.45003 | -116.43526 | 28104 ft | 499 kts | 225° |
| 2026-05-06 16:25 | 34.42683 | -116.46589 | 27850 ft | 488 kts | 231° |
| 2026-05-06 16:26 | 34.40806 | -116.49913 | 27594 ft | 476 kts | 241° |
| 2026-05-06 16:26 | 34.39290 | -116.53476 | 27090 ft | 470 kts | 244° |
| 2026-05-06 16:26 | 34.37837 | -116.57004 | 26583 ft | 466 kts | 245° |
| 2026-05-06 16:26 | 34.36426 | -116.60442 | 26103 ft | 461 kts | 245° |
| 2026-05-06 16:27 | 34.34984 | -116.63947 | 25607 ft | 456 kts | 244° |
| 2026-05-06 16:27 | 34.33602 | -116.67301 | 25151 ft | 450 kts | 244° |
| 2026-05-06 16:27 | 34.32202 | -116.70715 | 24895 ft | 439 kts | 245° |
| 2026-05-06 16:27 | 34.30895 | -116.73948 | 24599 ft | 430 kts | 245° |
| 2026-05-06 16:28 | 34.29599 | -116.77186 | 24103 ft | 424 kts | 245° |
| 2026-05-06 16:28 | 34.28330 | -116.80371 | 23296 ft | 421 kts | 245° |
| 2026-05-06 16:28 | 34.27069 | -116.83534 | 22948 ft | 413 kts | 245° |
| 2026-05-06 16:28 | 34.25823 | -116.86647 | 22428 ft | 410 kts | 245° |
| 2026-05-06 16:29 | 34.24581 | -116.89734 | 21981 ft | 406 kts | 245° |
| 2026-05-06 16:29 | 34.23345 | -116.92789 | 21534 ft | 403 kts | 245° |
| 2026-05-06 16:29 | 34.22116 | -116.95815 | 21082 ft | 400 kts | 245° |
| 2026-05-06 16:29 | 34.20969 | -116.98847 | 20630 ft | 394 kts | 252° |
| 2026-05-06 16:30 | 34.20111 | -117.01973 | 20189 ft | 390 kts | 254° |
| 2026-05-06 16:30 | 34.19558 | -117.04035 | 19885 ft | 388 kts | 254° |
| 2026-05-06 16:30 | 34.18451 | -117.08141 | 19296 ft | 383 kts | 254° |
| 2026-05-06 16:30 | 34.17627 | -117.11187 | 18864 ft | 379 kts | 254° |
| 2026-05-06 16:31 | 34.16826 | -117.14151 | 18429 ft | 376 kts | 254° |
| 2026-05-06 16:31 | 34.16000 | -117.17192 | 17960 ft | 373 kts | 254° |
| 2026-05-06 16:31 | 34.15202 | -117.20095 | 17669 ft | 366 kts | 254° |
| 2026-05-06 16:31 | 34.14405 | -117.22982 | 17042 ft | 359 kts | 254° |
| 2026-05-06 16:32 | 34.13634 | -117.25773 | 16629 ft | 349 kts | 254° |
| 2026-05-06 16:32 | 34.12867 | -117.28555 | 16227 ft | 346 kts | 253° |
| 2026-05-06 16:32 | 34.12107 | -117.31300 | 15846 ft | 343 kts | 253° |
| 2026-05-06 16:32 | 34.11353 | -117.34021 | 15457 ft | 340 kts | 253° |
| 2026-05-06 16:33 | 34.10611 | -117.36702 | 15078 ft | 338 kts | 253° |
| 2026-05-06 16:33 | 34.09885 | -117.39404 | 14695 ft | 335 kts | 255° |
| 2026-05-06 16:33 | 34.09208 | -117.42076 | 14317 ft | 332 kts | 255° |
| 2026-05-06 16:34 | 34.07909 | -117.47375 | 13555 ft | 328 kts | 255° |
| 2026-05-06 16:34 | 34.07289 | -117.50012 | 13173 ft | 325 kts | 259° |
| 2026-05-06 16:34 | 34.06905 | -117.52673 | 12898 ft | 318 kts | 262° |
| 2026-05-06 16:34 | 34.06537 | -117.55271 | 12689 ft | 311 kts | 262° |
| 2026-05-06 16:35 | 34.06166 | -117.57821 | 12365 ft | 308 kts | 261° |
| 2026-05-06 16:35 | 34.05790 | -117.60354 | 12052 ft | 305 kts | 261° |
| 2026-05-06 16:35 | 34.05416 | -117.62875 | 12003 ft | 306 kts | 261° |
| 2026-05-06 16:35 | 34.04899 | -117.65372 | 11915 ft | 309 kts | 252° |
| 2026-05-06 16:36 | 34.04211 | -117.67836 | 11295 ft | 316 kts | 252° |
| 2026-05-06 16:36 | 34.03501 | -117.70285 | 11012 ft | 303 kts | 251° |
| 2026-05-06 16:36 | 34.02808 | -117.72641 | 10322 ft | 297 kts | 251° |
| 2026-05-06 16:36 | 34.02126 | -117.74961 | 10097 ft | 295 kts | 251° |
| 2026-05-06 16:37 | 34.01433 | -117.77318 | 9986 ft | 295 kts | 251° |
| 2026-05-06 16:37 | 34.00757 | -117.79629 | 9320 ft | 291 kts | 251° |
| 2026-05-06 16:37 | 34.00091 | -117.81926 | 8552 ft | 289 kts | 251° |
| 2026-05-06 16:37 | 33.99599 | -117.84245 | 7970 ft | 284 kts | 264° |
| 2026-05-06 16:38 | 33.99449 | -117.86608 | 7208 ft | 282 kts | 266° |
| 2026-05-06 16:38 | 33.99321 | -117.88916 | 6798 ft | 266 kts | 265° |
| 2026-05-06 16:38 | 33.99209 | -117.91050 | 6632 ft | 244 kts | 265° |
| 2026-05-06 16:38 | 33.99102 | -117.93064 | 6404 ft | 236 kts | 265° |
| 2026-05-06 16:39 | 33.98998 | -117.95009 | 6127 ft | 231 kts | 264° |
| 2026-05-06 16:39 | 33.98896 | -117.96936 | 5786 ft | 229 kts | 265° |
| 2026-05-06 16:39 | 33.98794 | -117.98837 | 5455 ft | 226 kts | 265° |
| 2026-05-06 16:39 | 33.98695 | -118.00710 | 5120 ft | 224 kts | 266° |
| 2026-05-06 16:40 | 33.98820 | -118.02577 | 4800 ft | 222 kts | 273° |
| 2026-05-06 16:40 | 33.98795 | -118.04432 | 4482 ft | 219 kts | 264° |
| 2026-05-06 16:40 | 33.98633 | -118.06217 | 4166 ft | 217 kts | 263° |
| 2026-05-06 16:40 | 33.98450 | -118.08034 | 4007 ft | 216 kts | 263° |
| 2026-05-06 16:41 | 33.98270 | -118.09835 | 4008 ft | 217 kts | 263° |
| 2026-05-06 16:41 | 33.98091 | -118.11623 | 4014 ft | 217 kts | 263° |
| 2026-05-06 16:41 | 33.97913 | -118.13411 | 4003 ft | 212 kts | 263° |
| 2026-05-06 16:41 | 33.97742 | -118.15116 | 4003 ft | 199 kts | 263° |
| 2026-05-06 16:42 | 33.97576 | -118.16784 | 3890 ft | 196 kts | 263° |
| 2026-05-06 16:42 | 33.97415 | -118.18389 | 3653 ft | 195 kts | 263° |
| 2026-05-06 16:42 | 33.97256 | -118.19974 | 3430 ft | 186 kts | 263° |
| 2026-05-06 16:42 | 33.97103 | -118.21501 | 3171 ft | 184 kts | 263° |
| 2026-05-06 16:43 | 33.96948 | -118.23034 | 2924 ft | 183 kts | 263° |
| 2026-05-06 16:43 | 33.96796 | -118.24550 | 2680 ft | 182 kts | 263° |
| 2026-05-06 16:43 | 33.96643 | -118.26062 | 2437 ft | 180 kts | 263° |
| 2026-05-06 16:43 | 33.96494 | -118.27539 | 2199 ft | 172 kts | 263° |
| 2026-05-06 16:44 | 33.96353 | -118.28936 | 1979 ft | 165 kts | 263° |
| 2026-05-06 16:44 | 33.96216 | -118.30288 | 1774 ft | 161 kts | 262° |
| 2026-05-06 16:44 | 33.96084 | -118.31595 | 1556 ft | 154 kts | 262° |
| 2026-05-06 16:44 | 33.95955 | -118.32866 | 1356 ft | 152 kts | 262° |
| 2026-05-06 16:45 | 33.95828 | -118.34121 | 1153 ft | 151 kts | 262° |
| 2026-05-06 16:45 | 33.95701 | -118.35371 | 953 ft | 151 kts | 262° |
| 2026-05-06 16:45 | 33.95572 | -118.36636 | 752 ft | 151 kts | 262° |
| 2026-05-06 16:45 | 33.95444 | -118.37892 | 552 ft | 152 kts | 262° |
| 2026-05-06 16:46 | 33.95315 | -118.39160 | 350 ft | 152 kts | 262° |
| 2026-05-06 16:46 | 33.95187 | -118.40414 | 150 ft | 151 kts | 262° |
| 2026-05-06 16:46 | 33.95073 | -118.41531 | 126 ft | 103 kts | 263° |
| 2026-05-06 16:46 | 33.95005 | -118.42173 | 124 ft | 62 kts | 263° |
| 2026-05-06 16:47 | 33.94944 | -118.42523 | 122 ft | 30 kts | 239° |
| 2026-05-06 16:47 | 33.94878 | -118.42642 | 124 ft | 13 kts | 231° |
| 2026-05-06 16:47 | 33.94856 | -118.42672 | 121 ft | 0 kts | 227° |
| 2026-05-06 16:48 | 33.94839 | -118.42693 | 122 ft | 11 kts | 223° |
| 2026-05-06 16:49 | 33.94727 | -118.42771 | 126 ft | 24 kts | 197° |
| 2026-05-06 16:49 | 33.94638 | -118.42704 | 124 ft | 13 kts | 95° |
| 2026-05-06 16:49 | 33.94651 | -118.42552 | 126 ft | 26 kts | 83° |
| 2026-05-06 16:49 | 33.94674 | -118.42320 | 121 ft | 28 kts | 83° |
| 2026-05-06 16:50 | 33.94699 | -118.42083 | 125 ft | 28 kts | 83° |
| 2026-05-06 16:50 | 33.94723 | -118.41846 | 126 ft | 29 kts | 83° |
| 2026-05-06 16:50 | 33.94747 | -118.41609 | 121 ft | 29 kts | 82° |
| 2026-05-06 16:50 | 33.94766 | -118.41452 | 124 ft | 29 kts | 81° |
| 2026-05-06 16:51 | 33.94811 | -118.41136 | 126 ft | 29 kts | 83° |
| 2026-05-06 16:51 | 33.94834 | -118.40900 | 122 ft | 29 kts | 83° |
| 2026-05-06 16:51 | 33.94857 | -118.40674 | 126 ft | 19 kts | 83° |
| 2026-05-06 16:51 | 33.94809 | -118.40581 | 122 ft | 12 kts | 130° |
| 2026-05-06 16:52 | 33.94799 | -118.40447 | 126 ft | 19 kts | 83° |
| 2026-05-06 16:52 | 33.94807 | -118.40303 | 126 ft | 13 kts | 107° |
| 2026-05-06 16:52 | 33.94739 | -118.40258 | 124 ft | 7 kts | 166° |
| 2026-05-06 16:52 | 33.94725 | -118.40212 | 126 ft | 6 kts | 89° |
| 2026-05-06 16:53 | 33.94726 | -118.40190 | 124 ft | 0 kts | 85° |